Terminal Aerodrome Forecast
Issued by NWS

Home | Current Version | Previous Version | Text Only | Print | Product List | Glossary On
Versions: 1 2 3 4 5 6 7 8 9 10 11 12 13
000
FTUS43 KMKX 191131
TAFENW
TAF
KENW 191131Z 1912/2012 VRB03KT P6SM SCT250
     FM192000 18007KT P6SM SKC
     FM200500 VRB03KT P6SM SKC=

USA.gov is the U.S. government's official web portal to all federal, state and local government web resources and services.